createdAt,value
2019-05-16T00:00:49.587Z,2.47
2019-05-16T00:03:18.813Z,2.50
2019-05-16T00:05:54.050Z,2.50
2019-05-16T00:08:18.548Z,2.50
2019-05-16T00:10:48.704Z,2.70
2019-05-16T00:13:18.695Z,2.90
2019-05-16T00:15:48.173Z,2.80
2019-05-16T00:18:17.970Z,2.97
2019-05-16T00:20:49.108Z,2.67
2019-05-16T00:23:18.322Z,2.80
2019-05-16T00:25:47.825Z,2.60
2019-05-16T00:28:18.009Z,2.50
2019-05-16T00:30:48.720Z,2.50
2019-05-16T00:33:18.485Z,2.47
2019-05-16T00:35:48.216Z,2.73
2019-05-16T00:38:18.683Z,2.53
2019-05-16T00:40:48.692Z,2.43
2019-05-16T00:43:18.488Z,2.80
2019-05-16T00:45:48.658Z,2.40
2019-05-16T00:48:18.533Z,2.40
2019-05-16T00:50:48.139Z,2.33
2019-05-16T00:53:18.184Z,2.47
2019-05-16T00:55:48.023Z,2.23
2019-05-16T00:58:19.170Z,2.37
2019-05-16T01:00:50.411Z,2.30
2019-05-16T01:03:20.566Z,2.33
2019-05-16T01:05:50.116Z,2.67
2019-05-16T01:08:19.261Z,2.20
2019-05-16T01:10:51.490Z,2.17
2019-05-16T01:13:19.734Z,2.30
2019-05-16T01:15:48.912Z,2.33
2019-05-16T01:18:18.754Z,2.60
2019-05-16T01:20:48.496Z,2.30
2019-05-16T01:23:18.250Z,2.50
2019-05-16T01:25:48.290Z,2.70
2019-05-16T01:28:18.387Z,2.73
2019-05-16T01:30:48.818Z,2.80
2019-05-16T01:33:19.141Z,2.67
2019-05-16T01:35:49.179Z,2.83
2019-05-16T01:38:18.316Z,2.70
2019-05-16T01:40:49.102Z,2.80
2019-05-16T01:43:18.430Z,2.90
2019-05-16T01:45:48.757Z,2.87
2019-05-16T01:48:19.215Z,2.80
2019-05-16T01:50:48.619Z,2.80
2019-05-16T01:53:18.053Z,2.70
2019-05-16T01:55:48.817Z,2.80
2019-05-16T01:58:19.784Z,2.93
2019-05-16T02:01:03.207Z,2.70
2019-05-16T02:03:20.869Z,2.97
2019-05-16T02:05:49.922Z,3.10
2019-05-16T02:08:18.938Z,2.60
2019-05-16T02:10:48.129Z,2.97
2019-05-16T02:13:18.137Z,2.67
2019-05-16T02:15:48.863Z,2.60
2019-05-16T02:18:19.246Z,2.47
2019-05-16T02:20:48.364Z,2.90
2019-05-16T02:23:18.872Z,2.60
2019-05-16T02:25:49.241Z,2.57
2019-05-16T02:28:21.064Z,2.50
2019-05-16T02:30:51.405Z,2.57
2019-05-16T02:33:21.429Z,2.60
2019-05-16T02:35:55.359Z,2.80
2019-05-16T02:38:21.818Z,2.80
2019-05-16T02:40:54.845Z,2.57
2019-05-16T02:43:26.291Z,2.60
2019-05-16T02:45:52.372Z,2.60
2019-05-16T02:48:21.831Z,2.80
2019-05-16T02:50:51.715Z,3.00
2019-05-16T02:53:22.594Z,2.80
2019-05-16T02:55:52.227Z,2.50
2019-05-16T02:58:23.452Z,2.87
2019-05-16T03:00:52.381Z,2.40
2019-05-16T03:03:21.806Z,2.77
2019-05-16T03:05:52.037Z,2.70
2019-05-16T03:08:22.957Z,2.93
2019-05-16T03:10:53.115Z,2.70
2019-05-16T03:13:23.148Z,2.80
2019-05-16T03:15:52.211Z,2.70
2019-05-16T03:18:24.066Z,2.57
2019-05-16T03:20:55.095Z,2.63
2019-05-16T03:23:24.313Z,2.90
2019-05-16T03:25:53.324Z,2.80
2019-05-16T03:28:22.573Z,2.90
2019-05-16T03:30:54.759Z,2.70
2019-05-16T03:33:30.845Z,2.73
2019-05-16T03:35:55.457Z,2.63
2019-05-16T03:38:24.460Z,2.77
2019-05-16T03:40:53.566Z,2.83
2019-05-16T03:43:22.617Z,3.20
2019-05-16T03:45:52.335Z,3.20
2019-05-16T03:48:21.754Z,2.80
2019-05-16T03:50:51.169Z,3.03
2019-05-16T03:53:21.188Z,3.00
2019-05-16T03:55:51.803Z,3.10
2019-05-16T03:58:22.566Z,2.87
2019-05-16T04:00:55.047Z,2.90
2019-05-16T04:03:28.555Z,3.10
2019-05-16T04:05:55.619Z,3.13
2019-05-16T04:08:25.685Z,2.77
2019-05-16T04:10:55.302Z,3.00
2019-05-16T04:13:24.709Z,2.90
2019-05-16T04:15:53.795Z,3.00
2019-05-16T04:18:23.127Z,3.13
2019-05-16T04:20:52.943Z,2.90
2019-05-16T04:23:22.166Z,2.90
2019-05-16T04:25:53.077Z,2.80
2019-05-16T04:28:23.479Z,2.97
2019-05-16T04:30:52.992Z,3.20
2019-05-16T04:33:22.695Z,2.97
2019-05-16T04:35:53.062Z,3.37
2019-05-16T04:38:34.895Z,3.37
2019-05-16T04:40:53.575Z,3.03
2019-05-16T04:43:22.909Z,3.73
2019-05-16T04:45:52.994Z,3.20
2019-05-16T04:48:23.118Z,3.40
2019-05-16T04:50:52.764Z,2.90
2019-05-16T04:53:22.365Z,3.20
2019-05-16T04:55:52.341Z,3.63
2019-05-16T04:58:23.221Z,3.17
2019-05-16T05:00:53.336Z,3.47
2019-05-16T05:03:23.026Z,3.10
2019-05-16T05:05:52.222Z,3.50
2019-05-16T05:08:22.485Z,3.13
2019-05-16T05:10:52.268Z,3.37
2019-05-16T05:13:22.436Z,3.33
2019-05-16T05:15:52.362Z,4.70
2019-05-16T05:18:25.718Z,9.63
2019-05-16T05:20:56.003Z,4.73
2019-05-16T05:23:24.978Z,3.47
2019-05-16T05:25:53.999Z,3.40
2019-05-16T05:28:24.687Z,3.77
2019-05-16T05:30:53.717Z,3.30
2019-05-16T05:33:22.737Z,3.70
2019-05-16T05:35:51.786Z,3.87
2019-05-16T05:38:21.687Z,3.70
2019-05-16T05:40:51.663Z,3.97
2019-05-16T05:43:21.775Z,4.83
2019-05-16T05:45:51.774Z,6.13
2019-05-16T05:48:21.948Z,5.03
2019-05-16T05:50:51.659Z,16.53
2019-05-16T05:53:21.186Z,6.00
2019-05-16T05:55:51.790Z,20.67
2019-05-16T05:58:21.827Z,23.37
2019-05-16T06:00:52.112Z,11.30
2019-05-16T06:03:22.721Z,4.20
2019-05-16T06:05:52.430Z,5.67
2019-05-16T06:08:21.573Z,10.77
2019-05-16T06:10:50.784Z,7.30
2019-05-16T06:13:21.096Z,5.00
2019-05-16T06:15:51.279Z,7.10
2019-05-16T06:18:20.740Z,4.60
2019-05-16T06:20:51.279Z,4.73
2019-05-16T06:23:21.135Z,4.53
2019-05-16T06:25:51.043Z,4.73
2019-05-16T06:28:21.216Z,4.60
2019-05-16T06:30:51.531Z,12.60
2019-05-16T06:33:21.378Z,5.63
2019-05-16T06:35:51.436Z,8.60
2019-05-16T06:38:21.505Z,4.83
2019-05-16T06:40:52.717Z,4.17
2019-05-16T06:43:21.552Z,3.80
2019-05-16T06:45:51.407Z,3.70
2019-05-16T06:48:21.518Z,3.80
2019-05-16T06:50:52.098Z,3.63
2019-05-16T06:53:21.506Z,3.87
2019-05-16T06:55:50.602Z,3.73
2019-05-16T06:58:22.163Z,3.67
2019-05-16T07:00:52.350Z,4.20
2019-05-16T07:03:21.542Z,3.90
2019-05-16T07:05:51.222Z,3.73
2019-05-16T07:08:21.222Z,4.07
2019-05-16T07:10:51.276Z,4.10
2019-05-16T07:13:20.396Z,4.03
2019-05-16T07:15:50.384Z,4.17
2019-05-16T07:18:20.866Z,4.07
2019-05-16T07:20:51.369Z,4.20
2019-05-16T07:23:21.368Z,4.17
2019-05-16T07:25:51.148Z,4.00
2019-05-16T07:28:21.107Z,3.83
2019-05-16T07:30:50.924Z,3.70
2019-05-16T07:33:21.221Z,3.60
2019-05-16T07:35:51.587Z,3.40
2019-05-16T07:38:20.984Z,3.40
2019-05-16T07:40:51.268Z,3.60
2019-05-16T07:43:21.083Z,3.80
2019-05-16T07:45:51.379Z,3.80
2019-05-16T07:48:21.968Z,3.80
2019-05-16T07:50:52.417Z,7.63
2019-05-16T07:53:21.763Z,3.93
2019-05-16T07:55:51.244Z,3.13
2019-05-16T07:58:22.122Z,3.17
2019-05-16T08:01:01.907Z,3.30
2019-05-16T08:03:22.162Z,3.40
2019-05-16T08:05:51.784Z,2.87
2019-05-16T08:08:24.379Z,2.80
2019-05-16T08:10:52.456Z,2.83
2019-05-16T08:13:21.748Z,2.67
2019-05-16T08:15:51.213Z,2.33
2019-05-16T08:18:21.403Z,2.17
2019-05-16T08:20:52.602Z,2.43
2019-05-16T08:23:22.922Z,1.90
2019-05-16T08:25:52.331Z,1.90
2019-05-16T08:28:22.048Z,2.03
2019-05-16T08:30:52.853Z,1.83
2019-05-16T08:33:22.341Z,2.30
2019-05-16T08:35:51.933Z,2.37
2019-05-16T08:38:21.860Z,2.33
2019-05-16T08:41:08.100Z,2.30
2019-05-16T08:43:22.331Z,2.40
2019-05-16T08:45:51.852Z,2.60
2019-05-16T08:48:23.453Z,2.10
2019-05-16T08:50:54.619Z,2.20
2019-05-16T08:53:23.696Z,2.23
2019-05-16T08:55:52.677Z,2.40
2019-05-16T08:58:22.901Z,2.17
2019-05-16T09:00:56.273Z,2.43
2019-05-16T09:03:22.978Z,2.27
2019-05-16T09:08:22.814Z,2.33
2019-05-16T09:10:30.922Z,2.07
2019-05-16T09:11:01.722Z,2.30
2019-05-16T09:13:22.874Z,2.70
2019-05-16T09:15:51.901Z,2.30
2019-05-16T09:18:20.937Z,2.70
2019-05-16T09:20:50.672Z,2.47
2019-05-16T09:23:19.933Z,2.50
2019-05-16T09:25:49.351Z,2.50
2019-05-16T09:28:18.676Z,2.60
2019-05-16T09:30:47.719Z,2.63
2019-05-16T09:33:17.770Z,2.30
2019-05-16T09:35:48.015Z,2.37
2019-05-16T09:38:23.238Z,2.13
2019-05-16T09:40:48.585Z,2.70
2019-05-16T09:43:18.365Z,2.80
2019-05-16T09:45:47.644Z,2.50
2019-05-16T09:48:18.818Z,2.33
2019-05-16T09:50:48.627Z,2.30
2019-05-16T09:53:17.748Z,2.80
2019-05-16T09:55:47.382Z,2.33
2019-05-16T09:58:18.367Z,2.80
2019-05-16T10:00:48.052Z,2.47
2019-05-16T10:03:22.341Z,2.57
2019-05-16T10:05:48.674Z,2.83
2019-05-16T10:08:17.970Z,2.67
2019-05-16T10:10:47.162Z,2.60
2019-05-16T10:13:18.360Z,2.53
2019-05-16T10:15:47.534Z,2.20
2019-05-16T10:18:17.077Z,2.83
2019-05-16T10:20:46.257Z,2.70
2019-05-16T10:23:17.965Z,2.63
2019-05-16T10:25:47.992Z,2.30
2019-05-16T10:28:19.787Z,2.60
2019-05-16T10:30:50.060Z,2.43
2019-05-16T10:33:19.412Z,2.70
2019-05-16T10:35:48.831Z,2.60
2019-05-16T10:38:17.955Z,2.60
2019-05-16T10:40:47.695Z,2.27
2019-05-16T10:43:17.393Z,2.50
2019-05-16T10:45:46.729Z,2.77
2019-05-16T10:48:17.670Z,2.80
2019-05-16T10:50:47.743Z,2.53
2019-05-16T10:53:43.072Z,2.43
2019-05-16T10:55:48.063Z,2.43
2019-05-16T10:58:35.070Z,2.87
2019-05-16T11:01:13.934Z,2.87
2019-05-16T11:03:18.693Z,2.63
2019-05-16T11:06:01.677Z,2.73
2019-05-16T11:08:19.095Z,2.70
2019-05-16T11:10:48.233Z,3.10
2019-05-16T11:13:20.249Z,2.70
2019-05-16T11:15:48.485Z,2.90
2019-05-16T11:18:17.909Z,2.60
2019-05-16T11:20:49.118Z,2.37
2019-05-16T11:23:23.371Z,2.90
2019-05-16T11:25:48.607Z,2.67
2019-05-16T11:28:18.048Z,2.87
2019-05-16T11:30:49.659Z,2.70
2019-05-16T11:33:18.566Z,3.10
2019-05-16T11:35:47.887Z,2.70
2019-05-16T11:38:17.887Z,3.10
2019-05-16T11:40:47.615Z,2.70
2019-05-16T11:43:21.431Z,3.00
2019-05-16T11:45:48.285Z,3.03
2019-05-16T11:48:17.376Z,2.50
2019-05-16T11:50:48.052Z,2.97
2019-05-16T11:53:17.729Z,3.17
2019-05-16T11:55:54.549Z,3.30
2019-05-16T11:58:18.340Z,3.00
2019-05-16T12:00:48.314Z,3.00
2019-05-16T12:03:17.671Z,2.90
2019-05-16T12:05:47.984Z,3.20
2019-05-16T12:08:17.819Z,2.80
2019-05-16T12:10:47.289Z,2.93
2019-05-16T12:13:27.660Z,2.97
2019-05-16T12:15:47.636Z,2.97
2019-05-16T12:18:17.279Z,2.83
2019-05-16T12:20:46.734Z,2.90
2019-05-16T12:23:17.130Z,3.13
2019-05-16T12:25:47.619Z,3.10
2019-05-16T12:28:17.311Z,3.20
2019-05-16T12:30:47.182Z,3.50
2019-05-16T12:33:18.848Z,3.67
2019-05-16T12:35:47.743Z,3.50
2019-05-16T12:38:17.424Z,3.40
2019-05-16T12:40:47.887Z,3.60
2019-05-16T12:43:18.132Z,3.67
2019-05-16T12:45:47.592Z,3.63
2019-05-16T12:48:20.220Z,3.70
2019-05-16T12:50:48.367Z,3.60
2019-05-16T12:53:17.857Z,3.10
2019-05-16T12:55:47.539Z,3.40
2019-05-16T12:58:25.057Z,3.40
2019-05-16T13:00:54.161Z,3.30
2019-05-16T13:03:19.578Z,3.30
2019-05-16T13:05:48.608Z,4.00
2019-05-16T13:08:17.965Z,3.70
2019-05-16T13:10:47.354Z,3.80
2019-05-16T13:13:17.770Z,3.50
2019-05-16T13:15:47.491Z,3.13
2019-05-16T13:18:17.190Z,3.30
2019-05-16T13:20:46.965Z,3.40
2019-05-16T13:23:18.349Z,3.37
2019-05-16T13:25:48.045Z,2.77
2019-05-16T13:28:17.577Z,3.03
2019-05-16T13:30:47.215Z,3.00
2019-05-16T13:33:17.793Z,3.30
2019-05-16T13:35:47.415Z,3.30
2019-05-16T13:38:17.530Z,3.27
2019-05-16T13:40:47.071Z,3.40
2019-05-16T13:43:17.513Z,3.27
2019-05-16T13:45:47.418Z,3.60
2019-05-16T13:48:17.308Z,3.20
2019-05-16T13:50:47.332Z,3.33
2019-05-16T13:53:16.715Z,3.90
2019-05-16T13:55:45.788Z,3.93
2019-05-16T13:58:17.650Z,3.20
2019-05-16T14:00:48.092Z,3.47
2019-05-16T14:03:17.882Z,3.53
2019-05-16T14:05:47.776Z,3.57
2019-05-16T14:08:17.336Z,3.37
2019-05-16T14:10:48.472Z,3.33
2019-05-16T14:13:17.135Z,3.30
2019-05-16T14:15:47.254Z,3.20
2019-05-16T14:18:17.628Z,3.20
2019-05-16T14:20:47.012Z,2.80
2019-05-16T14:23:17.582Z,2.70
2019-05-16T14:25:48.057Z,2.90
2019-05-16T14:28:17.852Z,3.20
2019-05-16T14:30:47.089Z,3.80
2019-05-16T14:33:17.178Z,3.90
2019-05-16T14:35:47.393Z,3.87
2019-05-16T14:38:17.591Z,3.80
2019-05-16T14:40:50.236Z,4.10
2019-05-16T14:43:17.826Z,3.70
2019-05-16T14:45:46.966Z,3.40
2019-05-16T14:48:18.425Z,3.47
2019-05-16T14:50:47.252Z,3.80
2019-05-16T14:53:18.002Z,3.93
2019-05-16T14:55:47.745Z,4.00
2019-05-16T14:58:16.982Z,4.10
2019-05-16T15:00:49.164Z,4.10
2019-05-16T15:03:18.054Z,3.73
2019-05-16T15:05:48.116Z,3.67
2019-05-16T15:08:18.157Z,3.87
2019-05-16T15:10:47.630Z,3.33
2019-05-16T15:13:17.524Z,3.07
2019-05-16T15:15:46.989Z,3.37
2019-05-16T15:18:17.670Z,3.20
2019-05-16T15:20:47.152Z,3.43
2019-05-16T15:23:17.508Z,3.37
2019-05-16T15:25:47.042Z,3.10
2019-05-16T15:28:17.219Z,3.40
2019-05-16T15:30:47.030Z,3.10
2019-05-16T15:33:19.655Z,2.90
2019-05-16T15:35:47.356Z,3.27
2019-05-16T15:38:16.771Z,3.00
2019-05-16T15:40:48.213Z,2.73
2019-05-16T15:43:18.224Z,2.60
2019-05-16T15:45:52.182Z,3.00
2019-05-16T15:48:18.305Z,3.03
2019-05-16T15:50:47.473Z,2.90
2019-05-16T15:53:17.634Z,2.80
2019-05-16T15:55:47.541Z,2.93
2019-05-16T15:58:18.011Z,3.27
2019-05-16T16:00:49.687Z,3.30
2019-05-16T16:03:19.369Z,2.60
2019-05-16T16:05:48.381Z,2.60
2019-05-16T16:08:18.366Z,3.10
2019-05-16T16:10:48.678Z,2.90
2019-05-16T16:13:19.723Z,2.70
2019-05-16T16:15:53.939Z,2.43
2019-05-16T16:18:21.855Z,2.70
2019-05-16T16:20:51.291Z,2.90
2019-05-16T16:23:20.363Z,2.57
2019-05-16T16:25:51.097Z,3.13
2019-05-16T16:28:20.289Z,2.87
2019-05-16T16:30:49.407Z,2.83
2019-05-16T16:33:25.338Z,3.00
2019-05-16T16:35:49.194Z,3.17
2019-05-16T16:38:18.297Z,3.20
2019-05-16T16:40:48.129Z,3.20
2019-05-16T16:43:17.299Z,2.90
2019-05-16T16:45:47.959Z,3.20
2019-05-16T16:48:17.690Z,3.40
2019-05-16T16:50:46.832Z,2.90
2019-05-16T16:53:17.644Z,3.00
2019-05-16T16:55:47.567Z,3.30
2019-05-16T16:58:17.690Z,3.50
2019-05-16T17:00:47.929Z,3.63
2019-05-16T17:03:17.483Z,3.67
2019-05-16T17:05:46.656Z,3.90
2019-05-16T17:08:16.856Z,4.33
2019-05-16T17:10:47.636Z,3.87
2019-05-16T17:13:17.110Z,4.50
2019-05-16T17:15:47.315Z,4.50
2019-05-16T17:18:17.497Z,4.60
2019-05-16T17:20:47.736Z,4.90
2019-05-16T17:23:17.462Z,4.90
2019-05-16T17:25:47.314Z,5.03
2019-05-16T17:28:17.389Z,4.67
2019-05-16T17:30:47.295Z,5.30
2019-05-16T17:33:18.239Z,4.93
2019-05-16T17:35:49.031Z,4.73
2019-05-16T17:38:18.840Z,4.60
2019-05-16T17:40:48.366Z,5.63
2019-05-16T17:43:17.890Z,5.03
2019-05-16T17:45:47.243Z,5.07
2019-05-16T17:48:17.543Z,5.00
2019-05-16T17:50:47.769Z,4.67
2019-05-16T17:53:17.543Z,4.80
2019-05-16T17:55:47.394Z,4.70
2019-05-16T17:58:17.037Z,4.83
2019-05-16T18:00:47.153Z,5.03
2019-05-16T18:03:17.538Z,5.63
2019-05-16T18:05:47.689Z,5.40
2019-05-16T18:08:17.007Z,5.27
2019-05-16T18:10:47.119Z,5.03
2019-05-16T18:13:17.257Z,5.10
2019-05-16T18:15:47.289Z,5.40
2019-05-16T18:18:17.736Z,4.77
2019-05-16T18:20:55.843Z,4.70
2019-05-16T18:23:17.981Z,5.10
2019-05-16T18:25:47.227Z,5.10
2019-05-16T18:28:17.495Z,4.60
2019-05-16T18:30:47.366Z,5.53
2019-05-16T18:33:16.806Z,5.13
2019-05-16T18:35:47.045Z,5.27
2019-05-16T18:38:16.189Z,5.00
2019-05-16T18:40:47.353Z,4.70
2019-05-16T18:43:16.607Z,4.90
2019-05-16T18:45:47.163Z,5.00
2019-05-16T18:48:16.460Z,5.43
2019-05-16T18:50:47.753Z,5.30
2019-05-16T18:53:17.819Z,5.37
2019-05-16T18:55:47.449Z,5.07
2019-05-16T18:58:17.933Z,5.40
2019-05-16T19:00:47.776Z,5.20
2019-05-16T19:03:16.874Z,4.70
2019-05-16T19:05:46.342Z,5.40
2019-05-16T19:08:16.320Z,5.37
2019-05-16T19:10:47.355Z,5.43
2019-05-16T19:13:16.960Z,5.80
2019-05-16T19:15:46.576Z,6.30
2019-05-16T19:18:17.152Z,6.43
2019-05-16T19:20:48.851Z,6.20
2019-05-16T19:23:17.620Z,5.67
2019-05-16T19:25:47.405Z,9.07
2019-05-16T19:28:16.946Z,8.37
2019-05-16T19:30:46.618Z,10.93
2019-05-16T19:33:17.421Z,9.53
2019-05-16T19:35:48.911Z,10.07
2019-05-16T19:38:17.454Z,7.73
2019-05-16T19:40:47.010Z,9.67
2019-05-16T19:43:17.462Z,9.10
2019-05-16T19:45:47.031Z,7.33
2019-05-16T19:48:17.411Z,6.90
2019-05-16T19:50:46.892Z,13.07
2019-05-16T19:53:16.558Z,25.43
2019-05-16T19:55:47.042Z,24.37
2019-05-16T19:58:16.544Z,31.67
2019-05-16T20:00:46.535Z,24.10
2019-05-16T20:03:16.660Z,20.87
2019-05-16T20:05:47.601Z,11.23
2019-05-16T20:08:17.602Z,19.53
2019-05-16T20:10:47.720Z,14.77
2019-05-16T20:13:17.304Z,11.60
2019-05-16T20:15:47.160Z,10.57
2019-05-16T20:18:18.518Z,9.57
2019-05-16T20:20:47.322Z,21.43
2019-05-16T20:23:18.471Z,8.37
2019-05-16T20:25:47.146Z,16.90
2019-05-16T20:28:18.471Z,12.03
2019-05-16T20:30:47.546Z,8.50
2019-05-16T20:33:17.976Z,10.87
2019-05-16T20:35:47.573Z,14.10
2019-05-16T20:38:17.318Z,7.13
2019-05-16T20:40:47.046Z,6.50
2019-05-16T20:43:16.816Z,6.60
2019-05-16T20:45:47.593Z,6.53
2019-05-16T20:48:18.590Z,6.80
2019-05-16T20:50:49.264Z,6.90
2019-05-16T20:53:18.555Z,7.20
2019-05-16T20:55:49.539Z,6.70
2019-05-16T20:58:18.534Z,7.07
2019-05-16T21:00:49.754Z,7.80
2019-05-16T21:03:18.309Z,7.20
2019-05-16T21:05:48.229Z,6.80
2019-05-16T21:08:17.400Z,7.50
2019-05-16T21:10:46.546Z,6.90
2019-05-16T21:13:17.298Z,7.60
2019-05-16T21:15:47.683Z,7.40
2019-05-16T21:18:16.936Z,7.70
2019-05-16T21:20:47.019Z,7.20
2019-05-16T21:23:19.390Z,7.07
2019-05-16T21:25:47.410Z,7.53
2019-05-16T21:28:19.482Z,7.73
2019-05-16T21:30:47.495Z,7.50
2019-05-16T21:33:18.718Z,7.20
2019-05-16T21:35:47.496Z,7.47
2019-05-16T21:38:16.769Z,7.20
2019-05-16T21:40:46.283Z,7.80
2019-05-16T21:43:16.803Z,7.47
2019-05-16T21:45:47.419Z,7.63
2019-05-16T21:48:19.298Z,8.03
2019-05-16T21:50:47.431Z,7.13
2019-05-16T21:53:17.741Z,7.93
2019-05-16T21:55:47.321Z,7.67
2019-05-16T21:58:16.578Z,8.07
2019-05-16T22:00:48.684Z,7.87
2019-05-16T22:03:18.086Z,7.30
2019-05-16T22:05:47.632Z,8.00
2019-05-16T22:08:16.970Z,8.10
2019-05-16T22:10:46.892Z,7.93
2019-05-16T22:13:16.160Z,8.23
2019-05-16T22:15:46.370Z,7.97
2019-05-16T22:18:16.576Z,8.40
2019-05-16T22:20:48.898Z,8.57
2019-05-16T22:23:17.461Z,8.80
2019-05-16T22:25:49.165Z,8.83
2019-05-16T22:28:17.592Z,9.13
2019-05-16T22:30:46.813Z,9.00
2019-05-16T22:33:17.885Z,9.57
2019-05-16T22:35:49.488Z,9.60
2019-05-16T22:38:17.624Z,9.67
2019-05-16T22:40:46.687Z,10.20
2019-05-16T22:43:17.371Z,10.63
2019-05-16T22:45:46.851Z,10.57
2019-05-16T22:48:17.244Z,10.77
2019-05-16T22:50:46.823Z,10.40
2019-05-16T22:53:17.180Z,11.40
2019-05-16T22:55:47.817Z,10.97
2019-05-16T22:58:17.250Z,11.53
2019-05-16T23:00:47.211Z,11.87
2019-05-16T23:03:17.372Z,12.97
2019-05-16T23:05:47.656Z,13.53
2019-05-16T23:08:16.713Z,13.20
2019-05-16T23:10:45.796Z,14.10
2019-05-16T23:13:16.839Z,14.03
2019-05-16T23:15:45.672Z,14.37
2019-05-16T23:18:17.102Z,13.47
2019-05-16T23:20:47.355Z,14.70
2019-05-16T23:23:17.375Z,14.50
2019-05-16T23:25:46.901Z,13.70
2019-05-16T23:28:16.759Z,15.40
2019-05-16T23:30:47.100Z,15.70
2019-05-16T23:33:16.438Z,14.67
2019-05-16T23:35:46.883Z,15.80
2019-05-16T23:38:19.864Z,14.67
2019-05-16T23:40:47.084Z,15.90
2019-05-16T23:43:16.160Z,15.73
2019-05-16T23:45:46.942Z,16.40
2019-05-16T23:48:16.639Z,15.97
2019-05-16T23:50:47.487Z,16.63
2019-05-16T23:53:16.553Z,17.57
2019-05-16T23:55:47.152Z,16.80
2019-05-16T23:58:16.719Z,17.07
